sensor_id;sensor_type;location;lat;lon;timestamp;temperature;humidity
34766;DHT22;20984;43.508;1.504;2023-07-02T00:02:21;18.50;99.90
34766;DHT22;20984;43.508;1.504;2023-07-02T00:04:47;18.50;99.90
34766;DHT22;20984;43.508;1.504;2023-07-02T00:07:13;18.50;99.90
34766;DHT22;20984;43.508;1.504;2023-07-02T00:09:40;18.50;99.90
34766;DHT22;20984;43.508;1.504;2023-07-02T00:12:06;18.50;99.90
34766;DHT22;20984;43.508;1.504;2023-07-02T00:14:32;18.50;99.90
34766;DHT22;20984;43.508;1.504;2023-07-02T00:16:58;18.40;99.90
34766;DHT22;20984;43.508;1.504;2023-07-02T00:19:23;18.50;99.90
34766;DHT22;20984;43.508;1.504;2023-07-02T00:21:49;18.50;99.90
34766;DHT22;20984;43.508;1.504;2023-07-02T00:24:15;18.40;99.90
34766;DHT22;20984;43.508;1.504;2023-07-02T00:26:42;18.50;99.90
34766;DHT22;20984;43.508;1.504;2023-07-02T00:29:08;18.40;99.90
34766;DHT22;20984;43.508;1.504;2023-07-02T00:31:35;18.50;99.90
34766;DHT22;20984;43.508;1.504;2023-07-02T00:34:02;18.40;99.90
34766;DHT22;20984;43.508;1.504;2023-07-02T00:36:31;18.40;99.90
34766;DHT22;20984;43.508;1.504;2023-07-02T00:38:57;18.50;99.90
34766;DHT22;20984;43.508;1.504;2023-07-02T00:41:23;18.40;99.90
34766;DHT22;20984;43.508;1.504;2023-07-02T00:43:49;18.50;99.90
34766;DHT22;20984;43.508;1.504;2023-07-02T00:46:17;18.40;99.90
34766;DHT22;20984;43.508;1.504;2023-07-02T00:48:50;18.40;99.90
34766;DHT22;20984;43.508;1.504;2023-07-02T00:51:25;18.40;99.90
34766;DHT22;20984;43.508;1.504;2023-07-02T00:53:53;18.40;99.90
34766;DHT22;20984;43.508;1.504;2023-07-02T00:56:20;18.40;99.90
34766;DHT22;20984;43.508;1.504;2023-07-02T00:58:47;18.40;99.90
34766;DHT22;20984;43.508;1.504;2023-07-02T01:01:15;18.40;99.90
34766;DHT22;20984;43.508;1.504;2023-07-02T01:03:58;18.50;99.90
34766;DHT22;20984;43.508;1.504;2023-07-02T01:06:31;18.50;99.90
34766;DHT22;20984;43.508;1.504;2023-07-02T01:09:05;18.50;99.90
34766;DHT22;20984;43.508;1.504;2023-07-02T01:11:49;18.50;99.90
34766;DHT22;20984;43.508;1.504;2023-07-02T01:14:25;18.50;99.90
34766;DHT22;20984;43.508;1.504;2023-07-02T01:16:53;18.50;99.90
34766;DHT22;20984;43.508;1.504;2023-07-02T01:19:48;18.50;99.90
34766;DHT22;20984;43.508;1.504;2023-07-02T01:22:27;18.50;99.90
34766;DHT22;20984;43.508;1.504;2023-07-02T01:24:54;18.50;99.90
34766;DHT22;20984;43.508;1.504;2023-07-02T01:27:20;18.50;99.90
34766;DHT22;20984;43.508;1.504;2023-07-02T01:29:47;18.50;99.90
34766;DHT22;20984;43.508;1.504;2023-07-02T01:32:16;18.50;99.90
34766;DHT22;20984;43.508;1.504;2023-07-02T01:34:42;18.50;99.90
34766;DHT22;20984;43.508;1.504;2023-07-02T01:37:16;18.50;99.90
34766;DHT22;20984;43.508;1.504;2023-07-02T01:39:43;18.50;99.90
34766;DHT22;20984;43.508;1.504;2023-07-02T01:42:11;18.50;99.90
34766;DHT22;20984;43.508;1.504;2023-07-02T01:44:37;18.50;99.90
34766;DHT22;20984;43.508;1.504;2023-07-02T01:47:04;18.50;99.90
34766;DHT22;20984;43.508;1.504;2023-07-02T01:49:29;18.50;99.90
34766;DHT22;20984;43.508;1.504;2023-07-02T01:51:56;18.50;99.90
34766;DHT22;20984;43.508;1.504;2023-07-02T01:54:24;18.50;99.90
34766;DHT22;20984;43.508;1.504;2023-07-02T01:56:52;18.40;99.90
34766;DHT22;20984;43.508;1.504;2023-07-02T01:59:18;18.40;99.90
34766;DHT22;20984;43.508;1.504;2023-07-02T02:01:44;18.40;99.90
34766;DHT22;20984;43.508;1.504;2023-07-02T02:04:10;18.40;99.90
34766;DHT22;20984;43.508;1.504;2023-07-02T02:06:37;18.40;99.90
34766;DHT22;20984;43.508;1.504;2023-07-02T02:09:03;18.40;99.90
34766;DHT22;20984;43.508;1.504;2023-07-02T02:11:30;18.30;99.90
34766;DHT22;20984;43.508;1.504;2023-07-02T02:13:57;18.30;99.90
34766;DHT22;20984;43.508;1.504;2023-07-02T02:16:23;18.30;99.90
34766;DHT22;20984;43.508;1.504;2023-07-02T02:18:49;18.30;99.90
34766;DHT22;20984;43.508;1.504;2023-07-02T02:21:18;18.30;99.90
34766;DHT22;20984;43.508;1.504;2023-07-02T02:23:44;18.30;99.90
34766;DHT22;20984;43.508;1.504;2023-07-02T02:26:10;18.20;99.90
34766;DHT22;20984;43.508;1.504;2023-07-02T02:28:36;18.30;99.90
34766;DHT22;20984;43.508;1.504;2023-07-02T02:31:02;18.30;99.90
34766;DHT22;20984;43.508;1.504;2023-07-02T02:33:28;18.30;99.90
34766;DHT22;20984;43.508;1.504;2023-07-02T02:35:53;18.30;99.90
34766;DHT22;20984;43.508;1.504;2023-07-02T02:38:19;18.30;99.90
34766;DHT22;20984;43.508;1.504;2023-07-02T02:40:45;18.20;99.90
34766;DHT22;20984;43.508;1.504;2023-07-02T02:43:11;18.20;99.90
34766;DHT22;20984;43.508;1.504;2023-07-02T02:45:36;18.20;99.90
34766;DHT22;20984;43.508;1.504;2023-07-02T02:48:02;18.20;99.90
34766;DHT22;20984;43.508;1.504;2023-07-02T02:50:28;18.20;99.90
34766;DHT22;20984;43.508;1.504;2023-07-02T02:52:53;18.30;99.90
34766;DHT22;20984;43.508;1.504;2023-07-02T02:55:19;18.20;99.90
34766;DHT22;20984;43.508;1.504;2023-07-02T02:57:45;18.30;99.90
34766;DHT22;20984;43.508;1.504;2023-07-02T03:00:11;18.30;99.90
34766;DHT22;20984;43.508;1.504;2023-07-02T03:02:38;18.30;99.90
34766;DHT22;20984;43.508;1.504;2023-07-02T03:05:05;18.30;99.90
34766;DHT22;20984;43.508;1.504;2023-07-02T03:07:32;18.30;99.90
34766;DHT22;20984;43.508;1.504;2023-07-02T03:09:58;18.30;99.90
34766;DHT22;20984;43.508;1.504;2023-07-02T03:12:26;18.30;99.90
34766;DHT22;20984;43.508;1.504;2023-07-02T03:14:51;18.30;99.90
34766;DHT22;20984;43.508;1.504;2023-07-02T03:17:23;18.30;99.90
34766;DHT22;20984;43.508;1.504;2023-07-02T03:19:49;18.30;99.90
34766;DHT22;20984;43.508;1.504;2023-07-02T03:22:15;18.30;99.90
34766;DHT22;20984;43.508;1.504;2023-07-02T03:24:40;18.30;99.90
34766;DHT22;20984;43.508;1.504;2023-07-02T03:27:06;18.30;99.90
34766;DHT22;20984;43.508;1.504;2023-07-02T03:29:34;18.30;99.90
34766;DHT22;20984;43.508;1.504;2023-07-02T03:32:00;18.30;99.90
34766;DHT22;20984;43.508;1.504;2023-07-02T03:34:25;18.30;99.90
34766;DHT22;20984;43.508;1.504;2023-07-02T03:36:51;18.30;99.90
34766;DHT22;20984;43.508;1.504;2023-07-02T03:39:17;18.30;99.90
34766;DHT22;20984;43.508;1.504;2023-07-02T03:41:43;18.30;99.90
34766;DHT22;20984;43.508;1.504;2023-07-02T03:44:09;18.20;99.90
34766;DHT22;20984;43.508;1.504;2023-07-02T03:46:35;18.20;99.90
34766;DHT22;20984;43.508;1.504;2023-07-02T03:49:04;18.20;99.90
34766;DHT22;20984;43.508;1.504;2023-07-02T03:51:31;18.20;99.90
34766;DHT22;20984;43.508;1.504;2023-07-02T03:53:58;18.20;99.90
34766;DHT22;20984;43.508;1.504;2023-07-02T03:56:24;18.20;99.90
34766;DHT22;20984;43.508;1.504;2023-07-02T03:58:49;18.20;99.90
34766;DHT22;20984;43.508;1.504;2023-07-02T04:01:15;18.10;99.90
34766;DHT22;20984;43.508;1.504;2023-07-02T04:03:51;18.20;99.90
34766;DHT22;20984;43.508;1.504;2023-07-02T04:06:18;18.10;99.90
34766;DHT22;20984;43.508;1.504;2023-07-02T04:08:44;18.20;99.90
34766;DHT22;20984;43.508;1.504;2023-07-02T04:11:11;18.10;99.90
34766;DHT22;20984;43.508;1.504;2023-07-02T04:13:37;18.10;99.90
34766;DHT22;20984;43.508;1.504;2023-07-02T04:16:03;18.10;99.90
34766;DHT22;20984;43.508;1.504;2023-07-02T04:18:28;18.10;99.90
34766;DHT22;20984;43.508;1.504;2023-07-02T04:20:55;18.10;99.90
34766;DHT22;20984;43.508;1.504;2023-07-02T04:23:20;18.10;99.90
34766;DHT22;20984;43.508;1.504;2023-07-02T04:25:46;18.10;99.90
34766;DHT22;20984;43.508;1.504;2023-07-02T04:28:12;18.10;99.90
34766;DHT22;20984;43.508;1.504;2023-07-02T04:30:37;18.10;99.90
34766;DHT22;20984;43.508;1.504;2023-07-02T04:33:03;18.20;99.90
34766;DHT22;20984;43.508;1.504;2023-07-02T04:35:31;18.10;99.90
34766;DHT22;20984;43.508;1.504;2023-07-02T04:37:57;18.10;99.90
34766;DHT22;20984;43.508;1.504;2023-07-02T04:40:23;18.00;99.90
34766;DHT22;20984;43.508;1.504;2023-07-02T04:42:48;18.00;99.90
34766;DHT22;20984;43.508;1.504;2023-07-02T04:45:14;18.00;99.90
34766;DHT22;20984;43.508;1.504;2023-07-02T04:47:45;18.00;99.90
34766;DHT22;20984;43.508;1.504;2023-07-02T04:50:10;17.90;99.90
34766;DHT22;20984;43.508;1.504;2023-07-02T04:52:37;17.90;99.90
34766;DHT22;20984;43.508;1.504;2023-07-02T04:55:04;17.80;99.90
34766;DHT22;20984;43.508;1.504;2023-07-02T04:57:30;17.80;99.90
34766;DHT22;20984;43.508;1.504;2023-07-02T04:59:55;17.80;99.90
34766;DHT22;20984;43.508;1.504;2023-07-02T05:02:21;17.70;99.90
34766;DHT22;20984;43.508;1.504;2023-07-02T05:04:47;17.70;99.90
34766;DHT22;20984;43.508;1.504;2023-07-02T05:07:13;17.70;99.90
34766;DHT22;20984;43.508;1.504;2023-07-02T05:09:38;17.70;99.90
34766;DHT22;20984;43.508;1.504;2023-07-02T05:12:04;17.70;99.90
34766;DHT22;20984;43.508;1.504;2023-07-02T05:14:30;17.80;99.90
34766;DHT22;20984;43.508;1.504;2023-07-02T05:16:55;17.80;99.90
34766;DHT22;20984;43.508;1.504;2023-07-02T05:19:21;17.80;99.90
34766;DHT22;20984;43.508;1.504;2023-07-02T05:21:47;17.80;99.90
34766;DHT22;20984;43.508;1.504;2023-07-02T05:24:12;17.80;99.90
34766;DHT22;20984;43.508;1.504;2023-07-02T05:26:38;17.90;99.90
34766;DHT22;20984;43.508;1.504;2023-07-02T05:29:04;17.90;99.90
34766;DHT22;20984;43.508;1.504;2023-07-02T05:31:30;17.90;99.90
34766;DHT22;20984;43.508;1.504;2023-07-02T05:33:57;17.90;99.90
34766;DHT22;20984;43.508;1.504;2023-07-02T05:36:22;17.90;99.90
34766;DHT22;20984;43.508;1.504;2023-07-02T05:38:48;17.90;99.90
34766;DHT22;20984;43.508;1.504;2023-07-02T05:41:23;17.90;99.90
34766;DHT22;20984;43.508;1.504;2023-07-02T05:43:49;17.90;99.90
34766;DHT22;20984;43.508;1.504;2023-07-02T05:46:15;17.90;99.90
34766;DHT22;20984;43.508;1.504;2023-07-02T05:48:43;18.00;99.90
34766;DHT22;20984;43.508;1.504;2023-07-02T05:51:09;18.00;99.90
34766;DHT22;20984;43.508;1.504;2023-07-02T05:53:36;18.10;99.90
34766;DHT22;20984;43.508;1.504;2023-07-02T05:56:02;18.20;99.90
34766;DHT22;20984;43.508;1.504;2023-07-02T05:58:28;18.30;99.90
34766;DHT22;20984;43.508;1.504;2023-07-02T06:00:55;18.40;99.90
34766;DHT22;20984;43.508;1.504;2023-07-02T06:03:21;18.30;99.90
34766;DHT22;20984;43.508;1.504;2023-07-02T06:05:50;18.40;99.90
34766;DHT22;20984;43.508;1.504;2023-07-02T06:08:17;18.50;99.90
34766;DHT22;20984;43.508;1.504;2023-07-02T06:10:45;18.50;99.90
34766;DHT22;20984;43.508;1.504;2023-07-02T06:13:11;18.60;99.90
34766;DHT22;20984;43.508;1.504;2023-07-02T06:15:37;18.80;99.90
34766;DHT22;20984;43.508;1.504;2023-07-02T06:18:03;18.90;99.90
34766;DHT22;20984;43.508;1.504;2023-07-02T06:20:28;19.10;99.90
34766;DHT22;20984;43.508;1.504;2023-07-02T06:22:54;19.10;99.90
34766;DHT22;20984;43.508;1.504;2023-07-02T06:25:20;19.20;99.90
34766;DHT22;20984;43.508;1.504;2023-07-02T06:27:46;19.30;99.90
34766;DHT22;20984;43.508;1.504;2023-07-02T06:30:11;19.30;99.90
34766;DHT22;20984;43.508;1.504;2023-07-02T06:32:37;19.40;99.90
34766;DHT22;20984;43.508;1.504;2023-07-02T06:35:03;19.40;99.90
34766;DHT22;20984;43.508;1.504;2023-07-02T06:37:31;19.40;99.90
34766;DHT22;20984;43.508;1.504;2023-07-02T06:39:57;19.30;99.90
34766;DHT22;20984;43.508;1.504;2023-07-02T06:42:23;19.30;99.90
34766;DHT22;20984;43.508;1.504;2023-07-02T06:44:49;19.20;99.90
34766;DHT22;20984;43.508;1.504;2023-07-02T06:47:15;19.30;99.90
34766;DHT22;20984;43.508;1.504;2023-07-02T06:49:40;19.30;99.90
34766;DHT22;20984;43.508;1.504;2023-07-02T06:52:06;19.40;99.90
34766;DHT22;20984;43.508;1.504;2023-07-02T06:54:32;19.40;99.90
34766;DHT22;20984;43.508;1.504;2023-07-02T06:56:57;19.40;99.90
34766;DHT22;20984;43.508;1.504;2023-07-02T06:59:23;19.40;99.90
34766;DHT22;20984;43.508;1.504;2023-07-02T07:01:50;19.40;99.90
34766;DHT22;20984;43.508;1.504;2023-07-02T07:04:15;19.40;99.90
34766;DHT22;20984;43.508;1.504;2023-07-02T07:06:42;19.50;99.90
34766;DHT22;20984;43.508;1.504;2023-07-02T07:09:08;19.60;99.90
34766;DHT22;20984;43.508;1.504;2023-07-02T07:11:34;19.60;99.90
34766;DHT22;20984;43.508;1.504;2023-07-02T07:13:59;19.70;99.90
34766;DHT22;20984;43.508;1.504;2023-07-02T07:16:25;19.80;99.90
34766;DHT22;20984;43.508;1.504;2023-07-02T07:18:51;20.00;99.90
34766;DHT22;20984;43.508;1.504;2023-07-02T07:21:16;20.20;99.90
34766;DHT22;20984;43.508;1.504;2023-07-02T07:23:42;20.20;99.90
34766;DHT22;20984;43.508;1.504;2023-07-02T07:26:08;20.20;99.90
34766;DHT22;20984;43.508;1.504;2023-07-02T07:28:34;20.10;99.90
34766;DHT22;20984;43.508;1.504;2023-07-02T07:30:59;20.20;99.90
34766;DHT22;20984;43.508;1.504;2023-07-02T07:33:25;20.30;99.90
34766;DHT22;20984;43.508;1.504;2023-07-02T07:35:51;20.20;99.90
34766;DHT22;20984;43.508;1.504;2023-07-02T07:38:16;20.20;99.90
34766;DHT22;20984;43.508;1.504;2023-07-02T07:40:43;20.10;99.90
34766;DHT22;20984;43.508;1.504;2023-07-02T07:43:08;20.10;99.90
34766;DHT22;20984;43.508;1.504;2023-07-02T07:45:34;20.00;99.90
34766;DHT22;20984;43.508;1.504;2023-07-02T07:48:00;20.00;99.90
34766;DHT22;20984;43.508;1.504;2023-07-02T07:50:26;20.00;99.90
34766;DHT22;20984;43.508;1.504;2023-07-02T07:52:51;20.00;99.90
34766;DHT22;20984;43.508;1.504;2023-07-02T07:55:17;19.90;99.90
34766;DHT22;20984;43.508;1.504;2023-07-02T07:57:43;20.00;99.90
34766;DHT22;20984;43.508;1.504;2023-07-02T08:00:09;20.00;99.90
34766;DHT22;20984;43.508;1.504;2023-07-02T08:02:35;20.20;99.90
34766;DHT22;20984;43.508;1.504;2023-07-02T08:05:02;20.20;99.90
34766;DHT22;20984;43.508;1.504;2023-07-02T08:07:28;20.30;99.90
34766;DHT22;20984;43.508;1.504;2023-07-02T08:09:53;20.20;99.90
34766;DHT22;20984;43.508;1.504;2023-07-02T08:12:19;20.20;99.90
34766;DHT22;20984;43.508;1.504;2023-07-02T08:14:45;20.10;99.90
34766;DHT22;20984;43.508;1.504;2023-07-02T08:17:10;20.00;99.90
34766;DHT22;20984;43.508;1.504;2023-07-02T08:19:36;20.10;99.90
34766;DHT22;20984;43.508;1.504;2023-07-02T08:22:02;20.00;99.90
34766;DHT22;20984;43.508;1.504;2023-07-02T08:24:28;19.90;99.90
34766;DHT22;20984;43.508;1.504;2023-07-02T08:26:56;19.80;99.90
34766;DHT22;20984;43.508;1.504;2023-07-02T08:29:21;19.80;99.90
34766;DHT22;20984;43.508;1.504;2023-07-02T08:31:47;19.90;99.90
34766;DHT22;20984;43.508;1.504;2023-07-02T08:34:13;20.10;99.90
34766;DHT22;20984;43.508;1.504;2023-07-02T08:36:38;20.30;99.90
34766;DHT22;20984;43.508;1.504;2023-07-02T08:39:04;20.40;99.90
34766;DHT22;20984;43.508;1.504;2023-07-02T08:41:30;20.60;99.90
34766;DHT22;20984;43.508;1.504;2023-07-02T08:44:06;20.50;99.90
34766;DHT22;20984;43.508;1.504;2023-07-02T08:46:32;20.40;99.90
34766;DHT22;20984;43.508;1.504;2023-07-02T08:48:58;20.20;99.90
34766;DHT22;20984;43.508;1.504;2023-07-02T08:51:24;20.10;99.90
34766;DHT22;20984;43.508;1.504;2023-07-02T08:53:49;20.00;99.90
34766;DHT22;20984;43.508;1.504;2023-07-02T08:56:15;19.90;99.90
34766;DHT22;20984;43.508;1.504;2023-07-02T08:58:41;20.00;99.90
34766;DHT22;20984;43.508;1.504;2023-07-02T09:01:08;20.00;99.90
34766;DHT22;20984;43.508;1.504;2023-07-02T09:03:34;20.10;99.90
34766;DHT22;20984;43.508;1.504;2023-07-02T09:06:03;20.30;99.90
34766;DHT22;20984;43.508;1.504;2023-07-02T09:08:29;20.50;99.90
34766;DHT22;20984;43.508;1.504;2023-07-02T09:11:05;20.70;99.90
34766;DHT22;20984;43.508;1.504;2023-07-02T09:13:31;20.70;99.90
34766;DHT22;20984;43.508;1.504;2023-07-02T09:15:57;20.70;99.90
34766;DHT22;20984;43.508;1.504;2023-07-02T09:18:23;20.70;99.90
34766;DHT22;20984;43.508;1.504;2023-07-02T09:20:54;20.80;99.90
34766;DHT22;20984;43.508;1.504;2023-07-02T09:23:20;20.80;99.90
34766;DHT22;20984;43.508;1.504;2023-07-02T09:25:45;20.70;99.90
34766;DHT22;20984;43.508;1.504;2023-07-02T09:28:18;20.60;99.90
34766;DHT22;20984;43.508;1.504;2023-07-02T09:33:16;20.50;99.90
34766;DHT22;20984;43.508;1.504;2023-07-02T09:35:42;20.50;99.90
34766;DHT22;20984;43.508;1.504;2023-07-02T09:38:08;20.60;99.90
34766;DHT22;20984;43.508;1.504;2023-07-02T09:40:36;20.60;99.90
34766;DHT22;20984;43.508;1.504;2023-07-02T09:43:04;20.40;99.90
34766;DHT22;20984;43.508;1.504;2023-07-02T09:45:30;20.10;99.90
34766;DHT22;20984;43.508;1.504;2023-07-02T09:47:57;19.80;99.90
34766;DHT22;20984;43.508;1.504;2023-07-02T09:50:23;19.80;99.90
34766;DHT22;20984;43.508;1.504;2023-07-02T09:52:50;19.80;99.90
34766;DHT22;20984;43.508;1.504;2023-07-02T09:55:16;19.90;99.90
34766;DHT22;20984;43.508;1.504;2023-07-02T09:57:43;19.80;99.90
34766;DHT22;20984;43.508;1.504;2023-07-02T10:00:10;19.70;99.90
34766;DHT22;20984;43.508;1.504;2023-07-02T10:02:36;19.60;99.90
34766;DHT22;20984;43.508;1.504;2023-07-02T10:05:02;19.50;99.90
34766;DHT22;20984;43.508;1.504;2023-07-02T10:07:29;19.60;99.90
34766;DHT22;20984;43.508;1.504;2023-07-02T10:09:55;19.70;99.90
34766;DHT22;20984;43.508;1.504;2023-07-02T10:12:25;19.70;99.90
34766;DHT22;20984;43.508;1.504;2023-07-02T10:14:53;19.60;99.90
34766;DHT22;20984;43.508;1.504;2023-07-02T10:17:30;19.70;99.90
34766;DHT22;20984;43.508;1.504;2023-07-02T10:22:26;19.70;99.90
34766;DHT22;20984;43.508;1.504;2023-07-02T10:24:57;19.60;99.90
34766;DHT22;20984;43.508;1.504;2023-07-02T10:27:40;19.60;99.90
34766;DHT22;20984;43.508;1.504;2023-07-02T10:30:07;19.50;99.90
34766;DHT22;20984;43.508;1.504;2023-07-02T10:32:34;19.40;99.90
34766;DHT22;20984;43.508;1.504;2023-07-02T10:35:17;19.60;99.90
34766;DHT22;20984;43.508;1.504;2023-07-02T10:37:43;19.60;99.90
34766;DHT22;20984;43.508;1.504;2023-07-02T10:40:10;19.70;99.90
34766;DHT22;20984;43.508;1.504;2023-07-02T10:42:50;19.70;99.90
34766;DHT22;20984;43.508;1.504;2023-07-02T10:45:16;19.80;99.90
34766;DHT22;20984;43.508;1.504;2023-07-02T10:47:42;19.90;99.90
34766;DHT22;20984;43.508;1.504;2023-07-02T10:50:21;20.20;99.90
34766;DHT22;20984;43.508;1.504;2023-07-02T10:52:48;20.40;99.90
34766;DHT22;20984;43.508;1.504;2023-07-02T10:55:23;20.70;99.90
34766;DHT22;20984;43.508;1.504;2023-07-02T10:57:50;21.00;99.90
34766;DHT22;20984;43.508;1.504;2023-07-02T11:00:19;21.20;99.90
34766;DHT22;20984;43.508;1.504;2023-07-02T11:02:45;21.50;99.90
34766;DHT22;20984;43.508;1.504;2023-07-02T11:05:11;21.70;99.90
34766;DHT22;20984;43.508;1.504;2023-07-02T11:07:41;21.90;99.90
34766;DHT22;20984;43.508;1.504;2023-07-02T11:10:07;22.10;99.90
34766;DHT22;20984;43.508;1.504;2023-07-02T11:12:34;22.40;99.90
34766;DHT22;20984;43.508;1.504;2023-07-02T11:15:13;22.60;99.90
34766;DHT22;20984;43.508;1.504;2023-07-02T11:17:40;22.90;99.90
34766;DHT22;20984;43.508;1.504;2023-07-02T11:20:11;23.10;99.90
34766;DHT22;20984;43.508;1.504;2023-07-02T11:22:38;22.90;99.90
34766;DHT22;20984;43.508;1.504;2023-07-02T11:27:35;22.90;99.90
34766;DHT22;20984;43.508;1.504;2023-07-02T11:30:01;22.90;99.90
34766;DHT22;20984;43.508;1.504;2023-07-02T11:32:27;22.90;99.90
34766;DHT22;20984;43.508;1.504;2023-07-02T11:34:56;23.00;99.90
34766;DHT22;20984;43.508;1.504;2023-07-02T11:37:22;23.30;99.90
34766;DHT22;20984;43.508;1.504;2023-07-02T11:39:48;23.70;99.90
34766;DHT22;20984;43.508;1.504;2023-07-02T11:42:14;23.90;99.90
34766;DHT22;20984;43.508;1.504;2023-07-02T11:44:40;23.90;99.90
34766;DHT22;20984;43.508;1.504;2023-07-02T11:47:06;23.90;99.90
34766;DHT22;20984;43.508;1.504;2023-07-02T11:49:32;24.00;99.90
34766;DHT22;20984;43.508;1.504;2023-07-02T11:51:57;23.80;99.90
34766;DHT22;20984;43.508;1.504;2023-07-02T11:54:23;23.80;99.90
34766;DHT22;20984;43.508;1.504;2023-07-02T11:56:49;23.80;99.90
34766;DHT22;20984;43.508;1.504;2023-07-02T11:59:14;23.80;99.90
34766;DHT22;20984;43.508;1.504;2023-07-02T12:01:40;23.90;99.90
34766;DHT22;20984;43.508;1.504;2023-07-02T12:04:06;24.20;99.90
34766;DHT22;20984;43.508;1.504;2023-07-02T12:06:33;24.40;99.90
34766;DHT22;20984;43.508;1.504;2023-07-02T12:08:59;24.30;99.90
34766;DHT22;20984;43.508;1.504;2023-07-02T12:11:24;24.30;99.90
34766;DHT22;20984;43.508;1.504;2023-07-02T12:13:50;24.60;99.90
34766;DHT22;20984;43.508;1.504;2023-07-02T12:16:16;24.70;99.90
34766;DHT22;20984;43.508;1.504;2023-07-02T12:18:41;24.60;99.90
34766;DHT22;20984;43.508;1.504;2023-07-02T12:21:07;24.70;99.90
34766;DHT22;20984;43.508;1.504;2023-07-02T12:23:33;24.80;99.90
34766;DHT22;20984;43.508;1.504;2023-07-02T12:25:58;24.90;99.90
34766;DHT22;20984;43.508;1.504;2023-07-02T12:28:24;25.20;99.90
34766;DHT22;20984;43.508;1.504;2023-07-02T12:30:50;25.50;99.90
34766;DHT22;20984;43.508;1.504;2023-07-02T12:33:15;25.90;99.90
34766;DHT22;20984;43.508;1.504;2023-07-02T12:35:41;26.10;99.90
34766;DHT22;20984;43.508;1.504;2023-07-02T12:38:06;26.20;99.90
34766;DHT22;20984;43.508;1.504;2023-07-02T12:40:34;25.70;99.90
34766;DHT22;20984;43.508;1.504;2023-07-02T12:43:00;25.20;99.90
34766;DHT22;20984;43.508;1.504;2023-07-02T12:45:25;24.80;99.90
34766;DHT22;20984;43.508;1.504;2023-07-02T12:47:51;24.70;99.90
34766;DHT22;20984;43.508;1.504;2023-07-02T12:50:16;24.60;99.90
34766;DHT22;20984;43.508;1.504;2023-07-02T12:52:42;24.70;99.90
34766;DHT22;20984;43.508;1.504;2023-07-02T12:55:08;24.60;99.90
34766;DHT22;20984;43.508;1.504;2023-07-02T12:57:34;24.80;99.90
34766;DHT22;20984;43.508;1.504;2023-07-02T13:00:00;24.80;99.90
34766;DHT22;20984;43.508;1.504;2023-07-02T13:02:25;24.80;99.90
34766;DHT22;20984;43.508;1.504;2023-07-02T13:04:51;24.80;99.90
34766;DHT22;20984;43.508;1.504;2023-07-02T13:07:17;24.70;99.90
34766;DHT22;20984;43.508;1.504;2023-07-02T13:09:43;24.60;99.90
34766;DHT22;20984;43.508;1.504;2023-07-02T13:12:10;24.60;99.90
34766;DHT22;20984;43.508;1.504;2023-07-02T13:14:36;24.50;99.90
34766;DHT22;20984;43.508;1.504;2023-07-02T13:17:02;24.50;99.90
34766;DHT22;20984;43.508;1.504;2023-07-02T13:19:30;24.80;99.90
34766;DHT22;20984;43.508;1.504;2023-07-02T13:21:56;25.10;99.90
34766;DHT22;20984;43.508;1.504;2023-07-02T13:24:21;25.30;99.90
34766;DHT22;20984;43.508;1.504;2023-07-02T13:26:47;25.80;99.90
34766;DHT22;20984;43.508;1.504;2023-07-02T13:29:14;26.10;99.90
34766;DHT22;20984;43.508;1.504;2023-07-02T13:31:39;26.00;99.90
34766;DHT22;20984;43.508;1.504;2023-07-02T13:34:05;26.20;99.90
34766;DHT22;20984;43.508;1.504;2023-07-02T13:36:30;26.00;99.90
34766;DHT22;20984;43.508;1.504;2023-07-02T13:38:56;25.90;99.90
34766;DHT22;20984;43.508;1.504;2023-07-02T13:41:22;25.60;99.90
34766;DHT22;20984;43.508;1.504;2023-07-02T13:43:48;25.40;99.90
34766;DHT22;20984;43.508;1.504;2023-07-02T13:46:13;25.00;99.90
34766;DHT22;20984;43.508;1.504;2023-07-02T13:48:39;24.80;99.90
34766;DHT22;20984;43.508;1.504;2023-07-02T13:51:05;24.40;99.90
34766;DHT22;20984;43.508;1.504;2023-07-02T13:53:31;24.20;99.90
34766;DHT22;20984;43.508;1.504;2023-07-02T13:55:57;23.80;99.90
34766;DHT22;20984;43.508;1.504;2023-07-02T13:58:23;23.70;99.90
34766;DHT22;20984;43.508;1.504;2023-07-02T14:00:49;23.70;99.90
34766;DHT22;20984;43.508;1.504;2023-07-02T14:03:14;23.90;99.90
34766;DHT22;20984;43.508;1.504;2023-07-02T14:05:40;24.10;99.90
34766;DHT22;20984;43.508;1.504;2023-07-02T14:08:06;24.30;99.90
34766;DHT22;20984;43.508;1.504;2023-07-02T14:10:32;24.60;99.90
34766;DHT22;20984;43.508;1.504;2023-07-02T14:12:57;24.80;99.90
34766;DHT22;20984;43.508;1.504;2023-07-02T14:15:24;24.80;99.90
34766;DHT22;20984;43.508;1.504;2023-07-02T14:17:50;24.80;99.90
34766;DHT22;20984;43.508;1.504;2023-07-02T14:20:16;25.00;99.90
34766;DHT22;20984;43.508;1.504;2023-07-02T14:22:42;25.40;99.90
34766;DHT22;20984;43.508;1.504;2023-07-02T14:25:08;26.00;99.90
34766;DHT22;20984;43.508;1.504;2023-07-02T14:27:33;26.40;99.90
34766;DHT22;20984;43.508;1.504;2023-07-02T14:29:59;26.50;99.90
34766;DHT22;20984;43.508;1.504;2023-07-02T14:32:27;26.60;99.90
34766;DHT22;20984;43.508;1.504;2023-07-02T14:34:53;26.80;99.90
34766;DHT22;20984;43.508;1.504;2023-07-02T14:37:19;26.90;99.90
34766;DHT22;20984;43.508;1.504;2023-07-02T14:39:44;27.20;99.90
34766;DHT22;20984;43.508;1.504;2023-07-02T14:42:10;27.30;99.90
34766;DHT22;20984;43.508;1.504;2023-07-02T14:44:36;27.30;99.90
34766;DHT22;20984;43.508;1.504;2023-07-02T14:47:01;26.60;99.90
34766;DHT22;20984;43.508;1.504;2023-07-02T14:49:27;26.20;99.90
34766;DHT22;20984;43.508;1.504;2023-07-02T14:51:53;25.70;99.90
34766;DHT22;20984;43.508;1.504;2023-07-02T14:54:18;25.30;99.90
34766;DHT22;20984;43.508;1.504;2023-07-02T14:56:44;25.10;99.90
34766;DHT22;20984;43.508;1.504;2023-07-02T14:59:10;24.90;99.90
34766;DHT22;20984;43.508;1.504;2023-07-02T15:01:35;24.90;99.90
34766;DHT22;20984;43.508;1.504;2023-07-02T15:04:01;25.10;99.90
34766;DHT22;20984;43.508;1.504;2023-07-02T15:06:27;25.30;99.90
34766;DHT22;20984;43.508;1.504;2023-07-02T15:08:52;25.50;99.90
34766;DHT22;20984;43.508;1.504;2023-07-02T15:11:18;25.60;99.90
34766;DHT22;20984;43.508;1.504;2023-07-02T15:13:44;25.60;99.90
34766;DHT22;20984;43.508;1.504;2023-07-02T15:16:11;25.60;99.90
34766;DHT22;20984;43.508;1.504;2023-07-02T15:18:37;25.40;99.90
34766;DHT22;20984;43.508;1.504;2023-07-02T15:21:03;25.50;99.90
34766;DHT22;20984;43.508;1.504;2023-07-02T15:23:30;25.30;99.90
34766;DHT22;20984;43.508;1.504;2023-07-02T15:26:01;25.30;99.90
34766;DHT22;20984;43.508;1.504;2023-07-02T15:28:28;25.30;99.90
34766;DHT22;20984;43.508;1.504;2023-07-02T15:30:56;25.30;99.90
34766;DHT22;20984;43.508;1.504;2023-07-02T15:33:22;25.40;99.90
34766;DHT22;20984;43.508;1.504;2023-07-02T15:35:49;25.30;99.90